sensor_id;sensor_type;location;lat;lon;timestamp;P1;durP1;ratioP1;P2;durP2;ratioP2
25175;SDS011;13135;55.166;61.286;2023-02-15T00:00:10;4.03;;;3.20;;
25175;SDS011;13135;55.166;61.286;2023-02-15T00:02:58;4.93;;;3.97;;
25175;SDS011;13135;55.166;61.286;2023-02-15T00:05:42;5.27;;;4.70;;
25175;SDS011;13135;55.166;61.286;2023-02-15T00:08:26;7.07;;;4.07;;
25175;SDS011;13135;55.166;61.286;2023-02-15T00:11:11;5.67;;;4.03;;
25175;SDS011;13135;55.166;61.286;2023-02-15T00:13:56;5.50;;;4.93;;
25175;SDS011;13135;55.166;61.286;2023-02-15T00:16:40;4.43;;;4.03;;
25175;SDS011;13135;55.166;61.286;2023-02-15T00:19:24;4.63;;;4.23;;
25175;SDS011;13135;55.166;61.286;2023-02-15T00:22:08;6.60;;;5.93;;
25175;SDS011;13135;55.166;61.286;2023-02-15T00:24:53;10.53;;;5.43;;
25175;SDS011;13135;55.166;61.286;2023-02-15T00:27:37;6.87;;;4.17;;
25175;SDS011;13135;55.166;61.286;2023-02-15T00:30:22;6.13;;;4.27;;
25175;SDS011;13135;55.166;61.286;2023-02-15T00:33:06;4.97;;;3.57;;
25175;SDS011;13135;55.166;61.286;2023-02-15T00:35:55;4.43;;;4.07;;
25175;SDS011;13135;55.166;61.286;2023-02-15T00:38:35;5.97;;;4.17;;
25175;SDS011;13135;55.166;61.286;2023-02-15T00:41:22;11.03;;;5.73;;
25175;SDS011;13135;55.166;61.286;2023-02-15T00:44:08;3.90;;;3.57;;
25175;SDS011;13135;55.166;61.286;2023-02-15T00:46:53;5.73;;;4.60;;
25175;SDS011;13135;55.166;61.286;2023-02-15T00:49:40;3.63;;;3.33;;
25175;SDS011;13135;55.166;61.286;2023-02-15T00:52:27;7.07;;;5.17;;
25175;SDS011;13135;55.166;61.286;2023-02-15T00:55:11;5.30;;;3.33;;
25175;SDS011;13135;55.166;61.286;2023-02-15T00:57:56;4.67;;;3.70;;
25175;SDS011;13135;55.166;61.286;2023-02-15T01:00:41;4.13;;;3.77;;
25175;SDS011;13135;55.166;61.286;2023-02-15T01:03:24;4.17;;;3.33;;
25175;SDS011;13135;55.166;61.286;2023-02-15T01:06:10;7.40;;;4.43;;
25175;SDS011;13135;55.166;61.286;2023-02-15T01:08:55;5.90;;;4.47;;
25175;SDS011;13135;55.166;61.286;2023-02-15T01:11:38;5.13;;;4.40;;
25175;SDS011;13135;55.166;61.286;2023-02-15T01:14:23;4.80;;;3.20;;
25175;SDS011;13135;55.166;61.286;2023-02-15T01:17:09;3.97;;;3.60;;
25175;SDS011;13135;55.166;61.286;2023-02-15T01:19:53;6.87;;;5.37;;
25175;SDS011;13135;55.166;61.286;2023-02-15T01:22:38;4.87;;;4.43;;
25175;SDS011;13135;55.166;61.286;2023-02-15T01:25:22;7.90;;;5.47;;
25175;SDS011;13135;55.166;61.286;2023-02-15T01:28:06;6.10;;;4.93;;
25175;SDS011;13135;55.166;61.286;2023-02-15T01:30:50;6.03;;;4.27;;
25175;SDS011;13135;55.166;61.286;2023-02-15T01:33:35;12.37;;;6.57;;
25175;SDS011;13135;55.166;61.286;2023-02-15T01:36:18;10.70;;;7.97;;
25175;SDS011;13135;55.166;61.286;2023-02-15T01:39:02;6.33;;;5.17;;
25175;SDS011;13135;55.166;61.286;2023-02-15T01:41:43;6.27;;;4.20;;
25175;SDS011;13135;55.166;61.286;2023-02-15T01:47:34;8.77;;;6.00;;
25175;SDS011;13135;55.166;61.286;2023-02-15T01:50:24;7.97;;;5.53;;
25175;SDS011;13135;55.166;61.286;2023-02-15T01:53:17;13.20;;;7.53;;
25175;SDS011;13135;55.166;61.286;2023-02-15T01:56:03;6.03;;;4.80;;
25175;SDS011;13135;55.166;61.286;2023-02-15T01:58:47;14.20;;;5.97;;
25175;SDS011;13135;55.166;61.286;2023-02-15T02:01:32;12.30;;;6.40;;
25175;SDS011;13135;55.166;61.286;2023-02-15T02:04:17;14.67;;;6.97;;
25175;SDS011;13135;55.166;61.286;2023-02-15T02:07:01;7.47;;;6.40;;
25175;SDS011;13135;55.166;61.286;2023-02-15T02:09:45;7.73;;;5.53;;
25175;SDS011;13135;55.166;61.286;2023-02-15T02:12:29;12.07;;;6.07;;
25175;SDS011;13135;55.166;61.286;2023-02-15T02:15:13;9.63;;;5.23;;
25175;SDS011;13135;55.166;61.286;2023-02-15T02:18:03;6.70;;;4.77;;
25175;SDS011;13135;55.166;61.286;2023-02-15T02:27:06;7.57;;;5.50;;
25175;SDS011;13135;55.166;61.286;2023-02-15T02:30:02;7.37;;;6.63;;
25175;SDS011;13135;55.166;61.286;2023-02-15T02:32:57;10.17;;;6.53;;
25175;SDS011;13135;55.166;61.286;2023-02-15T02:38:52;9.00;;;6.03;;
25175;SDS011;13135;55.166;61.286;2023-02-15T02:41:38;7.60;;;6.27;;
25175;SDS011;13135;55.166;61.286;2023-02-15T02:44:21;9.87;;;8.13;;
25175;SDS011;13135;55.166;61.286;2023-02-15T02:47:09;3.53;;;3.33;;
25175;SDS011;13135;55.166;61.286;2023-02-15T02:49:58;3.73;;;3.43;;
25175;SDS011;13135;55.166;61.286;2023-02-15T02:52:42;3.97;;;3.50;;
25175;SDS011;13135;55.166;61.286;2023-02-15T02:55:27;9.13;;;6.17;;
25175;SDS011;13135;55.166;61.286;2023-02-15T03:01:28;5.50;;;5.10;;
25175;SDS011;13135;55.166;61.286;2023-02-15T03:04:13;4.20;;;3.80;;
25175;SDS011;13135;55.166;61.286;2023-02-15T03:07:00;3.57;;;3.27;;
25175;SDS011;13135;55.166;61.286;2023-02-15T03:09:45;6.33;;;4.43;;
25175;SDS011;13135;55.166;61.286;2023-02-15T03:12:30;4.17;;;3.77;;
25175;SDS011;13135;55.166;61.286;2023-02-15T03:15:17;3.70;;;3.40;;
25175;SDS011;13135;55.166;61.286;2023-02-15T03:17:58;3.07;;;2.87;;
25175;SDS011;13135;55.166;61.286;2023-02-15T03:20:41;2.33;;;2.23;;
25175;SDS011;13135;55.166;61.286;2023-02-15T03:23:25;3.03;;;2.83;;
25175;SDS011;13135;55.166;61.286;2023-02-15T03:26:10;6.27;;;4.27;;
25175;SDS011;13135;55.166;61.286;2023-02-15T03:28:55;4.70;;;3.87;;
25175;SDS011;13135;55.166;61.286;2023-02-15T03:31:40;5.43;;;4.93;;
25175;SDS011;13135;55.166;61.286;2023-02-15T03:34:22;4.33;;;4.03;;
25175;SDS011;13135;55.166;61.286;2023-02-15T03:37:10;5.53;;;5.07;;
25175;SDS011;13135;55.166;61.286;2023-02-15T03:39:58;5.00;;;4.50;;
25175;SDS011;13135;55.166;61.286;2023-02-15T03:42:45;5.90;;;5.17;;
25175;SDS011;13135;55.166;61.286;2023-02-15T03:45:30;3.93;;;3.27;;
25175;SDS011;13135;55.166;61.286;2023-02-15T03:48:16;4.77;;;4.13;;
25175;SDS011;13135;55.166;61.286;2023-02-15T03:51:02;8.30;;;7.27;;
25175;SDS011;13135;55.166;61.286;2023-02-15T03:53:46;5.83;;;5.33;;
25175;SDS011;13135;55.166;61.286;2023-02-15T03:56:31;3.00;;;2.83;;
25175;SDS011;13135;55.166;61.286;2023-02-15T03:59:16;4.83;;;4.43;;
25175;SDS011;13135;55.166;61.286;2023-02-15T04:02:04;4.77;;;3.37;;
25175;SDS011;13135;55.166;61.286;2023-02-15T04:04:53;3.23;;;3.03;;
25175;SDS011;13135;55.166;61.286;2023-02-15T04:07:42;3.97;;;3.63;;
25175;SDS011;13135;55.166;61.286;2023-02-15T04:10:26;2.70;;;2.50;;
25175;SDS011;13135;55.166;61.286;2023-02-15T04:13:15;4.20;;;3.87;;
25175;SDS011;13135;55.166;61.286;2023-02-15T04:16:14;4.87;;;4.57;;
25175;SDS011;13135;55.166;61.286;2023-02-15T04:18:58;6.13;;;5.53;;
25175;SDS011;13135;55.166;61.286;2023-02-15T04:21:43;12.43;;;4.93;;
25175;SDS011;13135;55.166;61.286;2023-02-15T04:24:28;8.70;;;5.93;;
25175;SDS011;13135;55.166;61.286;2023-02-15T04:27:12;4.03;;;3.73;;
25175;SDS011;13135;55.166;61.286;2023-02-15T04:30:01;8.10;;;6.77;;
25175;SDS011;13135;55.166;61.286;2023-02-15T04:32:46;5.23;;;3.53;;
25175;SDS011;13135;55.166;61.286;2023-02-15T04:35:31;3.93;;;3.63;;
25175;SDS011;13135;55.166;61.286;2023-02-15T04:38:18;6.97;;;4.50;;
25175;SDS011;13135;55.166;61.286;2023-02-15T04:41:08;4.63;;;4.23;;
25175;SDS011;13135;55.166;61.286;2023-02-15T04:43:52;3.77;;;3.53;;
25175;SDS011;13135;55.166;61.286;2023-02-15T04:46:36;5.87;;;4.80;;
25175;SDS011;13135;55.166;61.286;2023-02-15T04:49:19;3.53;;;3.23;;
25175;SDS011;13135;55.166;61.286;2023-02-15T04:52:03;8.27;;;5.23;;
25175;SDS011;13135;55.166;61.286;2023-02-15T04:54:48;5.27;;;3.83;;
25175;SDS011;13135;55.166;61.286;2023-02-15T04:57:35;6.23;;;5.37;;
25175;SDS011;13135;55.166;61.286;2023-02-15T05:00:20;7.57;;;4.97;;
25175;SDS011;13135;55.166;61.286;2023-02-15T05:03:04;9.77;;;4.93;;
25175;SDS011;13135;55.166;61.286;2023-02-15T05:05:47;9.67;;;5.13;;
25175;SDS011;13135;55.166;61.286;2023-02-15T05:08:32;5.87;;;4.80;;
25175;SDS011;13135;55.166;61.286;2023-02-15T05:11:16;5.20;;;4.77;;
25175;SDS011;13135;55.166;61.286;2023-02-15T05:13:59;6.57;;;4.87;;
25175;SDS011;13135;55.166;61.286;2023-02-15T05:16:43;7.63;;;5.40;;
25175;SDS011;13135;55.166;61.286;2023-02-15T05:19:27;7.20;;;4.63;;
25175;SDS011;13135;55.166;61.286;2023-02-15T05:22:08;8.17;;;6.03;;
25175;SDS011;13135;55.166;61.286;2023-02-15T05:24:52;8.43;;;5.43;;
25175;SDS011;13135;55.166;61.286;2023-02-15T05:27:35;8.50;;;5.43;;
25175;SDS011;13135;55.166;61.286;2023-02-15T05:30:19;8.23;;;5.63;;
25175;SDS011;13135;55.166;61.286;2023-02-15T05:33:07;9.77;;;6.77;;
25175;SDS011;13135;55.166;61.286;2023-02-15T05:35:50;7.50;;;4.30;;
25175;SDS011;13135;55.166;61.286;2023-02-15T05:38:34;8.93;;;5.83;;
25175;SDS011;13135;55.166;61.286;2023-02-15T05:41:19;10.93;;;6.27;;
25175;SDS011;13135;55.166;61.286;2023-02-15T05:44:04;6.77;;;6.17;;
25175;SDS011;13135;55.166;61.286;2023-02-15T05:46:51;6.77;;;5.97;;
25175;SDS011;13135;55.166;61.286;2023-02-15T05:49:35;7.97;;;4.53;;
25175;SDS011;13135;55.166;61.286;2023-02-15T05:52:19;6.97;;;4.50;;
25175;SDS011;13135;55.166;61.286;2023-02-15T05:55:04;5.70;;;4.87;;
25175;SDS011;13135;55.166;61.286;2023-02-15T05:57:49;7.07;;;5.97;;
25175;SDS011;13135;55.166;61.286;2023-02-15T06:00:36;10.47;;;5.80;;
25175;SDS011;13135;55.166;61.286;2023-02-15T06:03:20;4.97;;;4.33;;
25175;SDS011;13135;55.166;61.286;2023-02-15T06:06:05;4.67;;;4.23;;
25175;SDS011;13135;55.166;61.286;2023-02-15T06:08:50;7.60;;;5.93;;
25175;SDS011;13135;55.166;61.286;2023-02-15T06:11:34;4.80;;;4.33;;
25175;SDS011;13135;55.166;61.286;2023-02-15T06:14:19;15.03;;;6.53;;
25175;SDS011;13135;55.166;61.286;2023-02-15T06:17:04;6.53;;;5.13;;
25175;SDS011;13135;55.166;61.286;2023-02-15T06:19:48;4.37;;;3.33;;
25175;SDS011;13135;55.166;61.286;2023-02-15T06:22:32;3.33;;;2.83;;
25175;SDS011;13135;55.166;61.286;2023-02-15T06:25:16;4.30;;;4.00;;
25175;SDS011;13135;55.166;61.286;2023-02-15T06:28:01;12.20;;;7.40;;
25175;SDS011;13135;55.166;61.286;2023-02-15T06:30:46;4.77;;;3.97;;
25175;SDS011;13135;55.166;61.286;2023-02-15T06:33:29;6.13;;;4.87;;
25175;SDS011;13135;55.166;61.286;2023-02-15T06:36:13;6.50;;;5.27;;
25175;SDS011;13135;55.166;61.286;2023-02-15T06:38:59;4.87;;;4.13;;
25175;SDS011;13135;55.166;61.286;2023-02-15T06:41:44;10.27;;;6.60;;
25175;SDS011;13135;55.166;61.286;2023-02-15T06:44:29;7.73;;;4.37;;
25175;SDS011;13135;55.166;61.286;2023-02-15T06:47:12;7.13;;;5.07;;
25175;SDS011;13135;55.166;61.286;2023-02-15T06:49:57;8.30;;;6.20;;
25175;SDS011;13135;55.166;61.286;2023-02-15T06:52:41;6.43;;;4.90;;
25175;SDS011;13135;55.166;61.286;2023-02-15T06:55:27;11.13;;;4.87;;
25175;SDS011;13135;55.166;61.286;2023-02-15T06:58:11;9.87;;;6.50;;
25175;SDS011;13135;55.166;61.286;2023-02-15T07:00:54;7.17;;;3.93;;
25175;SDS011;13135;55.166;61.286;2023-02-15T07:03:38;11.53;;;4.80;;
25175;SDS011;13135;55.166;61.286;2023-02-15T07:06:22;5.97;;;4.37;;
25175;SDS011;13135;55.166;61.286;2023-02-15T07:09:07;8.63;;;5.80;;
25175;SDS011;13135;55.166;61.286;2023-02-15T07:11:54;8.53;;;6.43;;
25175;SDS011;13135;55.166;61.286;2023-02-15T07:14:39;9.33;;;6.47;;
25175;SDS011;13135;55.166;61.286;2023-02-15T07:17:23;8.83;;;6.80;;
25175;SDS011;13135;55.166;61.286;2023-02-15T07:20:11;8.53;;;6.43;;
25175;SDS011;13135;55.166;61.286;2023-02-15T07:22:57;11.73;;;7.40;;
25175;SDS011;13135;55.166;61.286;2023-02-15T07:25:42;11.40;;;6.90;;
25175;SDS011;13135;55.166;61.286;2023-02-15T07:28:27;11.27;;;8.37;;
25175;SDS011;13135;55.166;61.286;2023-02-15T07:31:12;9.80;;;6.80;;
25175;SDS011;13135;55.166;61.286;2023-02-15T07:33:56;15.97;;;9.30;;
25175;SDS011;13135;55.166;61.286;2023-02-15T07:36:43;24.77;;;13.67;;
25175;SDS011;13135;55.166;61.286;2023-02-15T07:39:28;12.83;;;7.93;;
25175;SDS011;13135;55.166;61.286;2023-02-15T07:42:13;8.60;;;7.50;;
25175;SDS011;13135;55.166;61.286;2023-02-15T07:45:00;17.67;;;7.37;;
25175;SDS011;13135;55.166;61.286;2023-02-15T07:47:43;18.07;;;9.57;;
25175;SDS011;13135;55.166;61.286;2023-02-15T07:50:28;17.93;;;7.23;;
25175;SDS011;13135;55.166;61.286;2023-02-15T07:53:12;11.80;;;9.50;;
25175;SDS011;13135;55.166;61.286;2023-02-15T07:55:59;18.57;;;9.07;;
25175;SDS011;13135;55.166;61.286;2023-02-15T07:58:43;15.20;;;7.70;;
25175;SDS011;13135;55.166;61.286;2023-02-15T08:01:29;16.30;;;8.80;;
25175;SDS011;13135;55.166;61.286;2023-02-15T08:04:12;12.53;;;7.37;;
25175;SDS011;13135;55.166;61.286;2023-02-15T08:06:55;17.73;;;9.23;;
25175;SDS011;13135;55.166;61.286;2023-02-15T08:09:39;18.07;;;9.47;;
25175;SDS011;13135;55.166;61.286;2023-02-15T08:12:26;15.23;;;8.97;;
25175;SDS011;13135;55.166;61.286;2023-02-15T08:15:10;12.23;;;6.07;;
25175;SDS011;13135;55.166;61.286;2023-02-15T08:17:55;15.07;;;7.47;;
25175;SDS011;13135;55.166;61.286;2023-02-15T08:20:49;15.13;;;8.03;;
25175;SDS011;13135;55.166;61.286;2023-02-15T08:23:32;14.67;;;7.77;;
25175;SDS011;13135;55.166;61.286;2023-02-15T08:26:16;19.50;;;8.00;;
25175;SDS011;13135;55.166;61.286;2023-02-15T08:29:03;20.33;;;9.07;;
25175;SDS011;13135;55.166;61.286;2023-02-15T08:31:52;18.07;;;7.77;;
25175;SDS011;13135;55.166;61.286;2023-02-15T08:34:39;16.60;;;8.07;;
25175;SDS011;13135;55.166;61.286;2023-02-15T08:37:24;12.77;;;7.57;;
25175;SDS011;13135;55.166;61.286;2023-02-15T08:40:09;15.33;;;7.27;;
25175;SDS011;13135;55.166;61.286;2023-02-15T08:42:55;14.33;;;7.03;;
25175;SDS011;13135;55.166;61.286;2023-02-15T08:45:41;15.53;;;7.23;;
25175;SDS011;13135;55.166;61.286;2023-02-15T08:48:26;12.97;;;6.63;;
25175;SDS011;13135;55.166;61.286;2023-02-15T08:51:18;16.07;;;7.57;;
25175;SDS011;13135;55.166;61.286;2023-02-15T08:54:07;17.43;;;7.53;;
25175;SDS011;13135;55.166;61.286;2023-02-15T08:56:58;17.67;;;7.63;;
25175;SDS011;13135;55.166;61.286;2023-02-15T08:59:44;17.13;;;7.33;;
25175;SDS011;13135;55.166;61.286;2023-02-15T09:02:31;17.33;;;6.87;;
25175;SDS011;13135;55.166;61.286;2023-02-15T09:05:17;18.47;;;7.30;;
25175;SDS011;13135;55.166;61.286;2023-02-15T09:08:01;16.60;;;7.50;;
25175;SDS011;13135;55.166;61.286;2023-02-15T09:10:46;15.97;;;7.60;;
25175;SDS011;13135;55.166;61.286;2023-02-15T09:13:29;24.53;;;8.23;;
25175;SDS011;13135;55.166;61.286;2023-02-15T09:16:13;15.90;;;8.03;;
25175;SDS011;13135;55.166;61.286;2023-02-15T09:19:00;15.60;;;7.60;;
25175;SDS011;13135;55.166;61.286;2023-02-15T09:21:45;16.17;;;7.47;;
25175;SDS011;13135;55.166;61.286;2023-02-15T09:24:31;14.37;;;6.80;;
25175;SDS011;13135;55.166;61.286;2023-02-15T09:27:13;17.20;;;7.53;;
25175;SDS011;13135;55.166;61.286;2023-02-15T09:29:59;23.10;;;8.17;;
25175;SDS011;13135;55.166;61.286;2023-02-15T09:32:43;20.37;;;8.37;;
25175;SDS011;13135;55.166;61.286;2023-02-15T09:35:28;25.77;;;9.23;;
25175;SDS011;13135;55.166;61.286;2023-02-15T09:38:19;20.60;;;7.07;;
25175;SDS011;13135;55.166;61.286;2023-02-15T09:41:09;11.97;;;6.67;;
25175;SDS011;13135;55.166;61.286;2023-02-15T09:47:20;18.33;;;7.33;;
25175;SDS011;13135;55.166;61.286;2023-02-15T09:53:14;15.13;;;7.43;;
25175;SDS011;13135;55.166;61.286;2023-02-15T09:56:18;18.70;;;6.70;;
25175;SDS011;13135;55.166;61.286;2023-02-15T09:59:05;17.27;;;7.27;;
25175;SDS011;13135;55.166;61.286;2023-02-15T10:02:12;17.10;;;7.33;;
25175;SDS011;13135;55.166;61.286;2023-02-15T10:05:10;15.43;;;7.77;;
25175;SDS011;13135;55.166;61.286;2023-02-15T10:08:12;16.67;;;7.00;;
25175;SDS011;13135;55.166;61.286;2023-02-15T10:11:03;20.57;;;7.03;;
25175;SDS011;13135;55.166;61.286;2023-02-15T10:13:48;15.23;;;7.23;;
25175;SDS011;13135;55.166;61.286;2023-02-15T10:16:34;16.53;;;6.63;;
25175;SDS011;13135;55.166;61.286;2023-02-15T10:19:25;14.93;;;7.20;;
25175;SDS011;13135;55.166;61.286;2023-02-15T10:23:02;13.07;;;7.13;;
25175;SDS011;13135;55.166;61.286;2023-02-15T10:25:51;18.17;;;7.73;;
25175;SDS011;13135;55.166;61.286;2023-02-15T10:28:39;22.97;;;6.87;;
25175;SDS011;13135;55.166;61.286;2023-02-15T10:31:38;20.03;;;6.97;;
25175;SDS011;13135;55.166;61.286;2023-02-15T10:34:43;18.97;;;8.07;;
25175;SDS011;13135;55.166;61.286;2023-02-15T10:37:35;19.17;;;6.77;;
25175;SDS011;13135;55.166;61.286;2023-02-15T10:40:41;17.27;;;7.47;;
25175;SDS011;13135;55.166;61.286;2023-02-15T10:46:40;25.77;;;7.93;;
25175;SDS011;13135;55.166;61.286;2023-02-15T10:49:35;19.47;;;7.77;;
25175;SDS011;13135;55.166;61.286;2023-02-15T10:52:40;17.87;;;7.10;;
25175;SDS011;13135;55.166;61.286;2023-02-15T10:55:33;16.87;;;7.87;;
25175;SDS011;13135;55.166;61.286;2023-02-15T10:58:23;28.30;;;8.83;;
25175;SDS011;13135;55.166;61.286;2023-02-15T11:01:13;19.40;;;8.80;;
25175;SDS011;13135;55.166;61.286;2023-02-15T11:07:08;16.63;;;7.50;;
25175;SDS011;13135;55.166;61.286;2023-02-15T11:13:18;21.17;;;8.20;;
25175;SDS011;13135;55.166;61.286;2023-02-15T11:16:03;24.67;;;7.70;;
25175;SDS011;13135;55.166;61.286;2023-02-15T11:18:53;22.90;;;8.17;;
25175;SDS011;13135;55.166;61.286;2023-02-15T11:21:44;37.40;;;8.77;;
25175;SDS011;13135;55.166;61.286;2023-02-15T11:24:30;20.10;;;7.10;;
25175;SDS011;13135;55.166;61.286;2023-02-15T11:27:19;25.57;;;7.37;;
25175;SDS011;13135;55.166;61.286;2023-02-15T11:33:05;22.67;;;7.03;;
25175;SDS011;13135;55.166;61.286;2023-02-15T11:35:50;13.53;;;5.20;;
25175;SDS011;13135;55.166;61.286;2023-02-15T11:38:35;16.93;;;6.50;;
25175;SDS011;13135;55.166;61.286;2023-02-15T11:41:21;16.30;;;7.30;;
25175;SDS011;13135;55.166;61.286;2023-02-15T11:44:06;14.27;;;7.03;;
25175;SDS011;13135;55.166;61.286;2023-02-15T11:46:52;15.90;;;6.97;;
25175;SDS011;13135;55.166;61.286;2023-02-15T11:49:37;17.43;;;8.63;;
25175;SDS011;13135;55.166;61.286;2023-02-15T11:52:22;15.53;;;7.27;;
25175;SDS011;13135;55.166;61.286;2023-02-15T11:55:10;15.07;;;7.10;;
25175;SDS011;13135;55.166;61.286;2023-02-15T11:57:54;17.53;;;8.13;;
25175;SDS011;13135;55.166;61.286;2023-02-15T12:00:44;11.90;;;6.90;;
25175;SDS011;13135;55.166;61.286;2023-02-15T12:03:46;15.93;;;6.53;;
25175;SDS011;13135;55.166;61.286;2023-02-15T12:06:29;14.47;;;6.03;;
25175;SDS011;13135;55.166;61.286;2023-02-15T12:12:24;14.80;;;6.83;;
25175;SDS011;13135;55.166;61.286;2023-02-15T12:15:08;17.33;;;7.13;;
25175;SDS011;13135;55.166;61.286;2023-02-15T12:17:54;11.10;;;6.07;;
25175;SDS011;13135;55.166;61.286;2023-02-15T12:20:40;13.00;;;6.20;;
25175;SDS011;13135;55.166;61.286;2023-02-15T12:23:25;20.60;;;8.17;;
25175;SDS011;13135;55.166;61.286;2023-02-15T12:26:07;20.27;;;7.43;;
25175;SDS011;13135;55.166;61.286;2023-02-15T12:28:52;14.80;;;6.60;;
25175;SDS011;13135;55.166;61.286;2023-02-15T12:31:39;15.80;;;6.90;;
25175;SDS011;13135;55.166;61.286;2023-02-15T12:34:29;12.50;;;7.13;;
25175;SDS011;13135;55.166;61.286;2023-02-15T12:37:16;8.97;;;6.53;;
25175;SDS011;13135;55.166;61.286;2023-02-15T12:40:17;11.53;;;6.50;;
25175;SDS011;13135;55.166;61.286;2023-02-15T12:42:47;12.03;;;7.13;;
25175;SDS011;13135;55.166;61.286;2023-02-15T12:45:31;17.33;;;8.03;;
25175;SDS011;13135;55.166;61.286;2023-02-15T12:48:17;14.80;;;8.10;;
25175;SDS011;13135;55.166;61.286;2023-02-15T12:50:57;18.37;;;7.70;;
25175;SDS011;13135;55.166;61.286;2023-02-15T12:53:41;12.80;;;7.67;;
25175;SDS011;13135;55.166;61.286;2023-02-15T12:56:26;16.00;;;8.13;;
25175;SDS011;13135;55.166;61.286;2023-02-15T12:59:12;13.60;;;6.80;;
25175;SDS011;13135;55.166;61.286;2023-02-15T13:01:55;19.33;;;6.80;;
25175;SDS011;13135;55.166;61.286;2023-02-15T13:04:46;12.23;;;5.63;;
25175;SDS011;13135;55.166;61.286;2023-02-15T13:07:25;10.37;;;6.80;;
25175;SDS011;13135;55.166;61.286;2023-02-15T13:10:18;8.60;;;5.60;;
25175;SDS011;13135;55.166;61.286;2023-02-15T13:12:55;15.03;;;6.23;;
25175;SDS011;13135;55.166;61.286;2023-02-15T13:15:39;8.90;;;5.60;;
25175;SDS011;13135;55.166;61.286;2023-02-15T13:18:28;10.47;;;5.57;;
25175;SDS011;13135;55.166;61.286;2023-02-15T13:21:29;5.47;;;4.63;;
25175;SDS011;13135;55.166;61.286;2023-02-15T13:24:20;10.73;;;5.87;;
25175;SDS011;13135;55.166;61.286;2023-02-15T13:27:04;10.73;;;6.23;;
25175;SDS011;13135;55.166;61.286;2023-02-15T13:29:59;7.83;;;5.87;;
25175;SDS011;13135;55.166;61.286;2023-02-15T13:32:46;10.73;;;6.70;;
25175;SDS011;13135;55.166;61.286;2023-02-15T13:35:37;9.07;;;6.37;;
25175;SDS011;13135;55.166;61.286;2023-02-15T13:38:23;11.17;;;5.73;;
25175;SDS011;13135;55.166;61.286;2023-02-15T13:41:14;9.27;;;6.07;;
25175;SDS011;13135;55.166;61.286;2023-02-15T13:44:03;9.27;;;5.73;;
25175;SDS011;13135;55.166;61.286;2023-02-15T13:47:02;21.97;;;4.63;;
25175;SDS011;13135;55.166;61.286;2023-02-15T13:52:46;11.03;;;7.07;;
25175;SDS011;13135;55.166;61.286;2023-02-15T13:55:36;12.63;;;4.97;;
25175;SDS011;13135;55.166;61.286;2023-02-15T13:58:30;23.80;;;7.77;;
25175;SDS011;13135;55.166;61.286;2023-02-15T14:01:30;7.40;;;6.30;;
25175;SDS011;13135;55.166;61.286;2023-02-15T14:04:20;18.20;;;8.50;;
25175;SDS011;13135;55.166;61.286;2023-02-15T14:10:31;13.57;;;7.70;;
25175;SDS011;13135;55.166;61.286;2023-02-15T14:16:25;8.57;;;5.23;;
25175;SDS011;13135;55.166;61.286;2023-02-15T14:19:16;7.57;;;4.03;;
25175;SDS011;13135;55.166;61.286;2023-02-15T14:22:00;9.70;;;6.20;;
25175;SDS011;13135;55.166;61.286;2023-02-15T14:28:08;10.50;;;5.53;;
25175;SDS011;13135;55.166;61.286;2023-02-15T14:30:58;9.60;;;5.80;;
25175;SDS011;13135;55.166;61.286;2023-02-15T14:33:47;12.17;;;6.40;;
25175;SDS011;13135;55.166;61.286;2023-02-15T14:36:28;10.73;;;6.93;;
25175;SDS011;13135;55.166;61.286;2023-02-15T14:42:06;11.17;;;6.47;;
25175;SDS011;13135;55.166;61.286;2023-02-15T14:44:54;10.13;;;7.37;;
25175;SDS011;13135;55.166;61.286;2023-02-15T14:47:44;27.40;;;10.93;;
25175;SDS011;13135;55.166;61.286;2023-02-15T14:50:38;14.40;;;8.13;;
25175;SDS011;13135;55.166;61.286;2023-02-15T14:53:33;9.07;;;6.03;;
25175;SDS011;13135;55.166;61.286;2023-02-15T14:56:20;12.10;;;5.93;;
25175;SDS011;13135;55.166;61.286;2023-02-15T14:59:12;18.07;;;9.40;;
25175;SDS011;13135;55.166;61.286;2023-02-15T15:02:07;15.50;;;8.27;;
25175;SDS011;13135;55.166;61.286;2023-02-15T15:04:56;11.53;;;7.30;;
25175;SDS011;13135;55.166;61.286;2023-02-15T15:07:42;11.83;;;6.73;;
25175;SDS011;13135;55.166;61.286;2023-02-15T15:10:41;10.13;;;4.93;;
25175;SDS011;13135;55.166;61.286;2023-02-15T15:13:35;13.70;;;6.73;;
25175;SDS011;13135;55.166;61.286;2023-02-15T15:16:27;6.73;;;6.17;;
25175;SDS011;13135;55.166;61.286;2023-02-15T15:19:56;8.73;;;5.00;;
25175;SDS011;13135;55.166;61.286;2023-02-15T15:22:22;6.43;;;4.60;;
25175;SDS011;13135;55.166;61.286;2023-02-15T15:25:13;13.10;;;5.87;;
25175;SDS011;13135;55.166;61.286;2023-02-15T15:31:19;6.77;;;5.43;;
25175;SDS011;13135;55.166;61.286;2023-02-15T15:34:20;8.87;;;5.67;;
25175;SDS011;13135;55.166;61.286;2023-02-15T15:37:31;12.87;;;6.13;;
25175;SDS011;13135;55.166;61.286;2023-02-15T15:40:35;5.77;;;5.27;;
25175;SDS011;13135;55.166;61.286;2023-02-15T15:43:24;8.10;;;5.60;;
25175;SDS011;13135;55.166;61.286;2023-02-15T15:46:32;9.63;;;6.63;;
25175;SDS011;13135;55.166;61.286;2023-02-15T15:49:29;24.80;;;12.27;;
25175;SDS011;13135;55.166;61.286;2023-02-15T15:52:13;27.67;;;12.83;;
25175;SDS011;13135;55.166;61.286;2023-02-15T15:54:58;14.90;;;8.93;;
25175;SDS011;13135;55.166;61.286;2023-02-15T15:57:51;20.37;;;11.20;;
25175;SDS011;13135;55.166;61.286;2023-02-15T16:00:42;9.07;;;7.77;;
25175;SDS011;13135;55.166;61.286;2023-02-15T16:03:26;15.17;;;5.20;;
25175;SDS011;13135;55.166;61.286;2023-02-15T16:06:11;21.77;;;7.57;;
25175;SDS011;13135;55.166;61.286;2023-02-15T16:08:52;13.43;;;6.70;;
25175;SDS011;13135;55.166;61.286;2023-02-15T16:11:36;9.00;;;6.50;;
25175;SDS011;13135;55.166;61.286;2023-02-15T16:14:25;5.93;;;5.37;;
25175;SDS011;13135;55.166;61.286;2023-02-15T16:17:14;15.57;;;9.03;;
25175;SDS011;13135;55.166;61.286;2023-02-15T16:20:02;24.47;;;7.73;;
25175;SDS011;13135;55.166;61.286;2023-02-15T16:22:48;17.43;;;10.67;;
25175;SDS011;13135;55.166;61.286;2023-02-15T16:25:31;11.10;;;7.20;;
25175;SDS011;13135;55.166;61.286;2023-02-15T16:28:15;10.83;;;7.00;;
25175;SDS011;13135;55.166;61.286;2023-02-15T16:33:57;13.83;;;6.83;;
25175;SDS011;13135;55.166;61.286;2023-02-15T16:36:44;8.60;;;5.97;;
25175;SDS011;13135;55.166;61.286;2023-02-15T16:39:29;12.73;;;8.17;;
25175;SDS011;13135;55.166;61.286;2023-02-15T16:42:15;10.87;;;7.20;;
25175;SDS011;13135;55.166;61.286;2023-02-15T16:45:02;10.97;;;5.50;;
25175;SDS011;13135;55.166;61.286;2023-02-15T16:47:45;10.67;;;6.43;;
25175;SDS011;13135;55.166;61.286;2023-02-15T16:50:32;10.20;;;5.33;;
25175;SDS011;13135;55.166;61.286;2023-02-15T16:53:17;10.03;;;6.77;;
25175;SDS011;13135;55.166;61.286;2023-02-15T16:55:57;15.37;;;8.50;;
25175;SDS011;13135;55.166;61.286;2023-02-15T16:58:43;9.50;;;7.70;;
25175;SDS011;13135;55.166;61.286;2023-02-15T17:01:28;13.30;;;6.73;;
25175;SDS011;13135;55.166;61.286;2023-02-15T17:04:14;14.80;;;8.13;;
25175;SDS011;13135;55.166;61.286;2023-02-15T17:07:15;19.40;;;7.63;;
25175;SDS011;13135;55.166;61.286;2023-02-15T17:09:59;14.17;;;8.07;;
25175;SDS011;13135;55.166;61.286;2023-02-15T17:12:45;7.23;;;5.07;;
25175;SDS011;13135;55.166;61.286;2023-02-15T17:15:33;8.30;;;5.80;;
25175;SDS011;13135;55.166;61.286;2023-02-15T17:18:20;9.47;;;6.70;;
25175;SDS011;13135;55.166;61.286;2023-02-15T17:23:56;9.43;;;6.43;;
25175;SDS011;13135;55.166;61.286;2023-02-15T17:26:41;9.83;;;5.43;;